sensor_id;sensor_type;location;lat;lon;timestamp;temperature;humidity
16594;DHT22;8410;52.532;13.336;2022-09-09T00:00:20;15.60;99.90
16594;DHT22;8410;52.532;13.336;2022-09-09T00:02:55;15.70;99.90
16594;DHT22;8410;52.532;13.336;2022-09-09T00:05:36;15.50;99.90
16594;DHT22;8410;52.532;13.336;2022-09-09T00:08:17;15.50;99.90
16594;DHT22;8410;52.532;13.336;2022-09-09T00:10:51;15.50;99.90
16594;DHT22;8410;52.532;13.336;2022-09-09T00:13:31;15.50;99.90
16594;DHT22;8410;52.532;13.336;2022-09-09T00:16:10;15.50;99.90
16594;DHT22;8410;52.532;13.336;2022-09-09T00:18:51;15.50;99.90
16594;DHT22;8410;52.532;13.336;2022-09-09T00:21:30;15.40;99.90
16594;DHT22;8410;52.532;13.336;2022-09-09T00:24:08;15.40;99.90
16594;DHT22;8410;52.532;13.336;2022-09-09T00:26:44;15.40;99.90
16594;DHT22;8410;52.532;13.336;2022-09-09T00:29:23;15.30;99.90
16594;DHT22;8410;52.532;13.336;2022-09-09T00:32:11;15.40;99.90
16594;DHT22;8410;52.532;13.336;2022-09-09T00:34:47;15.40;99.90
16594;DHT22;8410;52.532;13.336;2022-09-09T00:37:19;15.30;99.90
16594;DHT22;8410;52.532;13.336;2022-09-09T00:39:49;15.30;99.90
16594;DHT22;8410;52.532;13.336;2022-09-09T00:42:24;15.30;99.90
16594;DHT22;8410;52.532;13.336;2022-09-09T00:44:59;15.30;99.90
16594;DHT22;8410;52.532;13.336;2022-09-09T00:47:44;15.30;99.90
16594;DHT22;8410;52.532;13.336;2022-09-09T00:50:29;15.40;99.90
16594;DHT22;8410;52.532;13.336;2022-09-09T00:53:29;15.30;99.90
16594;DHT22;8410;52.532;13.336;2022-09-09T00:56:12;15.20;99.90
16594;DHT22;8410;52.532;13.336;2022-09-09T00:58:42;15.20;99.90
16594;DHT22;8410;52.532;13.336;2022-09-09T01:01:17;15.30;99.90
16594;DHT22;8410;52.532;13.336;2022-09-09T01:03:51;15.20;99.90
16594;DHT22;8410;52.532;13.336;2022-09-09T01:06:25;15.20;99.90
16594;DHT22;8410;52.532;13.336;2022-09-09T01:09:07;15.20;99.90
16594;DHT22;8410;52.532;13.336;2022-09-09T01:11:49;15.20;99.90
16594;DHT22;8410;52.532;13.336;2022-09-09T01:14:35;15.10;99.90
16594;DHT22;8410;52.532;13.336;2022-09-09T01:17:12;15.20;99.90
16594;DHT22;8410;52.532;13.336;2022-09-09T01:19:55;15.20;99.90
16594;DHT22;8410;52.532;13.336;2022-09-09T01:22:35;15.10;99.90
16594;DHT22;8410;52.532;13.336;2022-09-09T01:25:22;15.10;99.90
16594;DHT22;8410;52.532;13.336;2022-09-09T01:28:32;15.10;99.90
16594;DHT22;8410;52.532;13.336;2022-09-09T01:31:04;15.10;99.90
16594;DHT22;8410;52.532;13.336;2022-09-09T01:33:34;15.20;99.90
16594;DHT22;8410;52.532;13.336;2022-09-09T01:36:06;15.10;99.90
16594;DHT22;8410;52.532;13.336;2022-09-09T01:38:38;15.20;99.90
16594;DHT22;8410;52.532;13.336;2022-09-09T01:41:07;15.10;99.90
16594;DHT22;8410;52.532;13.336;2022-09-09T01:43:36;15.10;99.90
16594;DHT22;8410;52.532;13.336;2022-09-09T01:46:05;15.10;99.90
16594;DHT22;8410;52.532;13.336;2022-09-09T01:48:33;15.10;99.90
16594;DHT22;8410;52.532;13.336;2022-09-09T01:51:01;15.10;99.90
16594;DHT22;8410;52.532;13.336;2022-09-09T01:53:29;15.10;99.90
16594;DHT22;8410;52.532;13.336;2022-09-09T01:56:05;15.10;99.90
16594;DHT22;8410;52.532;13.336;2022-09-09T01:58:56;15.10;99.90
16594;DHT22;8410;52.532;13.336;2022-09-09T02:01:43;15.00;99.90
16594;DHT22;8410;52.532;13.336;2022-09-09T02:04:32;15.00;99.90
16594;DHT22;8410;52.532;13.336;2022-09-09T02:07:15;14.90;99.90
16594;DHT22;8410;52.532;13.336;2022-09-09T02:09:59;15.00;99.90
16594;DHT22;8410;52.532;13.336;2022-09-09T02:12:33;15.00;99.90
16594;DHT22;8410;52.532;13.336;2022-09-09T02:15:05;15.00;99.90
16594;DHT22;8410;52.532;13.336;2022-09-09T02:17:40;15.00;99.90
16594;DHT22;8410;52.532;13.336;2022-09-09T02:20:12;15.00;99.90
16594;DHT22;8410;52.532;13.336;2022-09-09T02:22:43;15.00;99.90
16594;DHT22;8410;52.532;13.336;2022-09-09T02:25:19;15.00;99.90
16594;DHT22;8410;52.532;13.336;2022-09-09T02:27:51;15.00;99.90
16594;DHT22;8410;52.532;13.336;2022-09-09T02:30:20;15.00;99.90
16594;DHT22;8410;52.532;13.336;2022-09-09T02:32:51;14.90;99.90
16594;DHT22;8410;52.532;13.336;2022-09-09T02:35:24;14.90;99.90
16594;DHT22;8410;52.532;13.336;2022-09-09T02:37:58;14.90;99.90
16594;DHT22;8410;52.532;13.336;2022-09-09T02:40:29;14.80;99.90
16594;DHT22;8410;52.532;13.336;2022-09-09T02:42:57;14.80;99.90
16594;DHT22;8410;52.532;13.336;2022-09-09T02:45:34;14.80;99.90
16594;DHT22;8410;52.532;13.336;2022-09-09T02:48:14;14.80;99.90
16594;DHT22;8410;52.532;13.336;2022-09-09T02:50:54;14.80;99.90
16594;DHT22;8410;52.532;13.336;2022-09-09T02:53:31;14.70;99.90
16594;DHT22;8410;52.532;13.336;2022-09-09T02:56:11;14.70;99.90
16594;DHT22;8410;52.532;13.336;2022-09-09T02:58:42;14.70;99.90
16594;DHT22;8410;52.532;13.336;2022-09-09T03:01:12;14.70;99.90
16594;DHT22;8410;52.532;13.336;2022-09-09T03:03:41;14.60;99.90
16594;DHT22;8410;52.532;13.336;2022-09-09T03:06:10;14.50;99.90
16594;DHT22;8410;52.532;13.336;2022-09-09T03:08:39;14.60;99.90
16594;DHT22;8410;52.532;13.336;2022-09-09T03:11:15;14.60;99.90
16594;DHT22;8410;52.532;13.336;2022-09-09T03:13:43;14.50;99.90
16594;DHT22;8410;52.532;13.336;2022-09-09T03:16:12;14.50;99.90
16594;DHT22;8410;52.532;13.336;2022-09-09T03:18:41;14.50;99.90
16594;DHT22;8410;52.532;13.336;2022-09-09T03:21:12;14.50;99.90
16594;DHT22;8410;52.532;13.336;2022-09-09T03:23:41;14.50;99.90
16594;DHT22;8410;52.532;13.336;2022-09-09T03:26:09;14.60;99.90
16594;DHT22;8410;52.532;13.336;2022-09-09T03:28:37;14.50;99.90
16594;DHT22;8410;52.532;13.336;2022-09-09T03:31:05;14.50;99.90
16594;DHT22;8410;52.532;13.336;2022-09-09T03:33:38;14.60;99.90
16594;DHT22;8410;52.532;13.336;2022-09-09T03:36:08;14.60;99.90
16594;DHT22;8410;52.532;13.336;2022-09-09T03:38:37;14.60;99.90
16594;DHT22;8410;52.532;13.336;2022-09-09T03:41:04;14.60;99.90
16594;DHT22;8410;52.532;13.336;2022-09-09T03:43:34;14.60;99.90
16594;DHT22;8410;52.532;13.336;2022-09-09T03:46:04;14.60;99.90
16594;DHT22;8410;52.532;13.336;2022-09-09T03:48:32;14.60;99.90
16594;DHT22;8410;52.532;13.336;2022-09-09T03:51:01;14.60;99.90
16594;DHT22;8410;52.532;13.336;2022-09-09T03:53:29;14.70;99.90
16594;DHT22;8410;52.532;13.336;2022-09-09T03:55:58;14.70;99.90
16594;DHT22;8410;52.532;13.336;2022-09-09T03:58:27;14.60;99.90
16594;DHT22;8410;52.532;13.336;2022-09-09T04:00:57;14.60;99.90
16594;DHT22;8410;52.532;13.336;2022-09-09T04:03:27;14.60;99.90
16594;DHT22;8410;52.532;13.336;2022-09-09T04:05:58;14.60;99.90
16594;DHT22;8410;52.532;13.336;2022-09-09T04:08:30;14.60;99.90
16594;DHT22;8410;52.532;13.336;2022-09-09T04:11:00;14.60;99.90
16594;DHT22;8410;52.532;13.336;2022-09-09T04:13:33;14.50;99.90
16594;DHT22;8410;52.532;13.336;2022-09-09T04:16:03;14.60;99.90
16594;DHT22;8410;52.532;13.336;2022-09-09T04:18:31;14.50;99.90
16594;DHT22;8410;52.532;13.336;2022-09-09T04:20:59;14.60;99.90
16594;DHT22;8410;52.532;13.336;2022-09-09T04:23:29;14.50;99.90
16594;DHT22;8410;52.532;13.336;2022-09-09T04:25:58;14.50;99.90
16594;DHT22;8410;52.532;13.336;2022-09-09T04:28:29;14.40;99.90
16594;DHT22;8410;52.532;13.336;2022-09-09T04:31:04;14.40;99.90
16594;DHT22;8410;52.532;13.336;2022-09-09T04:33:33;14.40;99.90
16594;DHT22;8410;52.532;13.336;2022-09-09T04:36:06;14.50;99.90
16594;DHT22;8410;52.532;13.336;2022-09-09T04:38:36;14.40;99.90
16594;DHT22;8410;52.532;13.336;2022-09-09T04:41:04;14.40;99.90
16594;DHT22;8410;52.532;13.336;2022-09-09T04:43:32;14.40;99.90
16594;DHT22;8410;52.532;13.336;2022-09-09T04:46:01;14.50;99.90
16594;DHT22;8410;52.532;13.336;2022-09-09T04:48:29;14.40;99.90
16594;DHT22;8410;52.532;13.336;2022-09-09T04:50:59;14.50;99.90
16594;DHT22;8410;52.532;13.336;2022-09-09T04:53:28;14.50;99.90
16594;DHT22;8410;52.532;13.336;2022-09-09T04:56:03;14.60;99.90
16594;DHT22;8410;52.532;13.336;2022-09-09T04:58:32;14.60;99.90
16594;DHT22;8410;52.532;13.336;2022-09-09T05:01:05;14.60;99.90
16594;DHT22;8410;52.532;13.336;2022-09-09T05:03:34;14.60;99.90
16594;DHT22;8410;52.532;13.336;2022-09-09T05:06:04;14.60;99.90
16594;DHT22;8410;52.532;13.336;2022-09-09T05:08:35;14.60;99.90
16594;DHT22;8410;52.532;13.336;2022-09-09T05:11:13;14.60;99.90
16594;DHT22;8410;52.532;13.336;2022-09-09T05:13:43;14.70;99.90
16594;DHT22;8410;52.532;13.336;2022-09-09T05:16:12;14.70;99.90
16594;DHT22;8410;52.532;13.336;2022-09-09T05:18:41;14.80;99.90
16594;DHT22;8410;52.532;13.336;2022-09-09T05:21:10;14.90;99.90
16594;DHT22;8410;52.532;13.336;2022-09-09T05:23:38;14.80;99.90
16594;DHT22;8410;52.532;13.336;2022-09-09T05:26:11;14.80;99.90
16594;DHT22;8410;52.532;13.336;2022-09-09T05:28:43;14.80;99.90
16594;DHT22;8410;52.532;13.336;2022-09-09T05:31:13;14.80;99.90
16594;DHT22;8410;52.532;13.336;2022-09-09T05:33:44;14.90;99.90
16594;DHT22;8410;52.532;13.336;2022-09-09T05:36:16;14.90;99.90
16594;DHT22;8410;52.532;13.336;2022-09-09T05:38:47;15.00;99.90
16594;DHT22;8410;52.532;13.336;2022-09-09T05:41:17;15.00;99.90
16594;DHT22;8410;52.532;13.336;2022-09-09T05:43:46;15.10;99.90
16594;DHT22;8410;52.532;13.336;2022-09-09T05:46:17;15.00;99.90
16594;DHT22;8410;52.532;13.336;2022-09-09T05:48:47;15.10;99.90
16594;DHT22;8410;52.532;13.336;2022-09-09T05:51:19;15.20;99.90
16594;DHT22;8410;52.532;13.336;2022-09-09T05:53:49;15.20;99.90
16594;DHT22;8410;52.532;13.336;2022-09-09T05:56:20;15.20;99.90
16594;DHT22;8410;52.532;13.336;2022-09-09T05:58:52;15.30;99.90
16594;DHT22;8410;52.532;13.336;2022-09-09T06:01:23;15.30;99.90
16594;DHT22;8410;52.532;13.336;2022-09-09T06:03:53;15.30;99.90
16594;DHT22;8410;52.532;13.336;2022-09-09T06:06:22;15.30;99.90
16594;DHT22;8410;52.532;13.336;2022-09-09T06:08:53;15.40;99.90
16594;DHT22;8410;52.532;13.336;2022-09-09T06:11:26;15.50;99.90
16594;DHT22;8410;52.532;13.336;2022-09-09T06:13:57;15.50;99.90
16594;DHT22;8410;52.532;13.336;2022-09-09T06:16:27;15.50;99.90
16594;DHT22;8410;52.532;13.336;2022-09-09T06:18:57;15.60;99.90
16594;DHT22;8410;52.532;13.336;2022-09-09T06:21:26;15.70;99.90
16594;DHT22;8410;52.532;13.336;2022-09-09T06:23:56;15.70;99.90
16594;DHT22;8410;52.532;13.336;2022-09-09T06:26:30;15.70;99.90
16594;DHT22;8410;52.532;13.336;2022-09-09T06:29:00;15.80;99.90
16594;DHT22;8410;52.532;13.336;2022-09-09T06:31:32;15.90;99.90
16594;DHT22;8410;52.532;13.336;2022-09-09T06:34:03;15.90;99.90
16594;DHT22;8410;52.532;13.336;2022-09-09T06:36:34;15.90;99.90
16594;DHT22;8410;52.532;13.336;2022-09-09T06:39:03;16.00;99.90
16594;DHT22;8410;52.532;13.336;2022-09-09T06:41:39;16.00;99.90
16594;DHT22;8410;52.532;13.336;2022-09-09T06:44:07;15.90;99.90
16594;DHT22;8410;52.532;13.336;2022-09-09T06:46:37;16.00;99.90
16594;DHT22;8410;52.532;13.336;2022-09-09T06:49:07;15.90;99.90
16594;DHT22;8410;52.532;13.336;2022-09-09T06:51:37;15.80;99.90
16594;DHT22;8410;52.532;13.336;2022-09-09T06:54:10;15.90;99.90
16594;DHT22;8410;52.532;13.336;2022-09-09T06:56:41;15.90;99.90
16594;DHT22;8410;52.532;13.336;2022-09-09T06:59:10;15.90;99.90
16594;DHT22;8410;52.532;13.336;2022-09-09T07:01:40;16.00;99.90
16594;DHT22;8410;52.532;13.336;2022-09-09T07:04:10;16.10;99.90
16594;DHT22;8410;52.532;13.336;2022-09-09T07:06:41;16.30;99.90
16594;DHT22;8410;52.532;13.336;2022-09-09T07:09:12;16.40;99.90
16594;DHT22;8410;52.532;13.336;2022-09-09T07:11:44;16.40;99.90
16594;DHT22;8410;52.532;13.336;2022-09-09T07:14:13;16.50;99.90
16594;DHT22;8410;52.532;13.336;2022-09-09T07:16:43;16.60;99.90
16594;DHT22;8410;52.532;13.336;2022-09-09T07:19:13;16.60;99.90
16594;DHT22;8410;52.532;13.336;2022-09-09T07:21:42;16.70;99.90
16594;DHT22;8410;52.532;13.336;2022-09-09T07:24:10;16.80;99.90
16594;DHT22;8410;52.532;13.336;2022-09-09T07:26:39;16.80;99.90
16594;DHT22;8410;52.532;13.336;2022-09-09T07:29:09;17.00;99.90
16594;DHT22;8410;52.532;13.336;2022-09-09T07:31:46;17.10;99.90
16594;DHT22;8410;52.532;13.336;2022-09-09T07:34:14;17.00;99.90
16594;DHT22;8410;52.532;13.336;2022-09-09T07:36:42;17.10;99.90
16594;DHT22;8410;52.532;13.336;2022-09-09T07:39:12;17.30;99.90
16594;DHT22;8410;52.532;13.336;2022-09-09T07:41:42;17.40;99.90
16594;DHT22;8410;52.532;13.336;2022-09-09T07:44:14;17.50;99.90
16594;DHT22;8410;52.532;13.336;2022-09-09T07:46:44;17.60;99.90
16594;DHT22;8410;52.532;13.336;2022-09-09T07:49:13;17.80;99.90
16594;DHT22;8410;52.532;13.336;2022-09-09T07:51:43;17.80;99.90
16594;DHT22;8410;52.532;13.336;2022-09-09T07:54:15;17.90;99.90
16594;DHT22;8410;52.532;13.336;2022-09-09T07:56:47;17.90;99.90
16594;DHT22;8410;52.532;13.336;2022-09-09T07:59:17;17.90;99.90
16594;DHT22;8410;52.532;13.336;2022-09-09T08:01:47;18.00;99.90
16594;DHT22;8410;52.532;13.336;2022-09-09T08:04:20;18.00;99.90
16594;DHT22;8410;52.532;13.336;2022-09-09T08:06:51;18.10;99.90
16594;DHT22;8410;52.532;13.336;2022-09-09T08:09:21;18.20;99.90
16594;DHT22;8410;52.532;13.336;2022-09-09T08:11:51;18.30;99.90
16594;DHT22;8410;52.532;13.336;2022-09-09T08:14:21;18.30;99.90
16594;DHT22;8410;52.532;13.336;2022-09-09T08:16:50;18.40;99.90
16594;DHT22;8410;52.532;13.336;2022-09-09T08:19:20;18.40;99.90
16594;DHT22;8410;52.532;13.336;2022-09-09T08:21:49;18.40;99.90
16594;DHT22;8410;52.532;13.336;2022-09-09T08:24:17;18.40;99.90
16594;DHT22;8410;52.532;13.336;2022-09-09T08:26:47;18.40;99.90
16594;DHT22;8410;52.532;13.336;2022-09-09T08:29:16;18.40;99.90
16594;DHT22;8410;52.532;13.336;2022-09-09T08:31:48;18.30;99.90
16594;DHT22;8410;52.532;13.336;2022-09-09T08:34:17;18.20;99.90
16594;DHT22;8410;52.532;13.336;2022-09-09T08:36:47;18.80;99.90
16594;DHT22;8410;52.532;13.336;2022-09-09T08:39:18;19.10;99.90
16594;DHT22;8410;52.532;13.336;2022-09-09T08:42:07;19.30;99.90
16594;DHT22;8410;52.532;13.336;2022-09-09T08:45:14;19.40;99.90
16594;DHT22;8410;52.532;13.336;2022-09-09T08:48:05;20.00;99.90
16594;DHT22;8410;52.532;13.336;2022-09-09T08:50:44;20.10;99.90
16594;DHT22;8410;52.532;13.336;2022-09-09T08:53:17;19.70;99.90
16594;DHT22;8410;52.532;13.336;2022-09-09T08:55:50;20.00;99.90
16594;DHT22;8410;52.532;13.336;2022-09-09T08:58:23;19.90;99.90
16594;DHT22;8410;52.532;13.336;2022-09-09T09:01:02;19.20;99.90
16594;DHT22;8410;52.532;13.336;2022-09-09T09:03:48;19.50;99.90
16594;DHT22;8410;52.532;13.336;2022-09-09T09:06:30;20.00;99.90
16594;DHT22;8410;52.532;13.336;2022-09-09T09:09:14;19.50;99.90
16594;DHT22;8410;52.532;13.336;2022-09-09T09:11:51;20.00;99.90
16594;DHT22;8410;52.532;13.336;2022-09-09T09:14:23;20.20;99.90
16594;DHT22;8410;52.532;13.336;2022-09-09T09:16:54;20.10;99.90
16594;DHT22;8410;52.532;13.336;2022-09-09T09:19:28;20.20;99.90
16594;DHT22;8410;52.532;13.336;2022-09-09T09:22:02;20.40;99.90
16594;DHT22;8410;52.532;13.336;2022-09-09T09:24:40;20.20;99.90
16594;DHT22;8410;52.532;13.336;2022-09-09T09:27:25;20.50;99.90
16594;DHT22;8410;52.532;13.336;2022-09-09T09:30:01;20.50;99.90
16594;DHT22;8410;52.532;13.336;2022-09-09T09:32:55;20.60;99.90
16594;DHT22;8410;52.532;13.336;2022-09-09T09:35:29;20.70;99.90
16594;DHT22;8410;52.532;13.336;2022-09-09T09:37:57;20.60;99.90
16594;DHT22;8410;52.532;13.336;2022-09-09T09:40:51;20.60;99.90
16594;DHT22;8410;52.532;13.336;2022-09-09T09:43:25;20.80;99.90
16594;DHT22;8410;52.532;13.336;2022-09-09T09:45:55;20.50;99.90
16594;DHT22;8410;52.532;13.336;2022-09-09T09:48:43;20.30;99.90
16594;DHT22;8410;52.532;13.336;2022-09-09T09:51:17;20.20;99.90
16594;DHT22;8410;52.532;13.336;2022-09-09T09:53:47;20.40;99.90
16594;DHT22;8410;52.532;13.336;2022-09-09T09:56:16;20.30;99.90
16594;DHT22;8410;52.532;13.336;2022-09-09T09:58:50;20.40;99.90
16594;DHT22;8410;52.532;13.336;2022-09-09T10:01:21;20.30;99.90
16594;DHT22;8410;52.532;13.336;2022-09-09T10:03:53;20.30;99.90
16594;DHT22;8410;52.532;13.336;2022-09-09T10:06:33;20.40;99.90
16594;DHT22;8410;52.532;13.336;2022-09-09T10:09:03;20.40;99.90
16594;DHT22;8410;52.532;13.336;2022-09-09T10:11:54;20.40;99.90
16594;DHT22;8410;52.532;13.336;2022-09-09T10:14:38;20.20;99.90
16594;DHT22;8410;52.532;13.336;2022-09-09T10:17:22;20.20;99.90
16594;DHT22;8410;52.532;13.336;2022-09-09T10:20:11;20.30;99.90
16594;DHT22;8410;52.532;13.336;2022-09-09T10:22:52;20.60;99.90
16594;DHT22;8410;52.532;13.336;2022-09-09T10:25:38;20.60;99.90
16594;DHT22;8410;52.532;13.336;2022-09-09T10:28:41;20.60;99.90
16594;DHT22;8410;52.532;13.336;2022-09-09T10:31:36;20.30;99.90
16594;DHT22;8410;52.532;13.336;2022-09-09T10:34:19;20.30;99.90
16594;DHT22;8410;52.532;13.336;2022-09-09T10:37:04;20.40;99.90
16594;DHT22;8410;52.532;13.336;2022-09-09T10:39:42;20.40;99.90
16594;DHT22;8410;52.532;13.336;2022-09-09T10:42:13;20.40;99.90
16594;DHT22;8410;52.532;13.336;2022-09-09T10:45:02;20.40;99.90
16594;DHT22;8410;52.532;13.336;2022-09-09T10:47:54;20.60;99.90
16594;DHT22;8410;52.532;13.336;2022-09-09T10:50:51;20.60;99.90
16594;DHT22;8410;52.532;13.336;2022-09-09T10:53:35;20.60;99.90
16594;DHT22;8410;52.532;13.336;2022-09-09T10:56:13;20.60;99.90
16594;DHT22;8410;52.532;13.336;2022-09-09T10:58:48;20.70;99.90
16594;DHT22;8410;52.532;13.336;2022-09-09T11:01:22;20.80;99.90
16594;DHT22;8410;52.532;13.336;2022-09-09T11:03:57;20.80;99.90
16594;DHT22;8410;52.532;13.336;2022-09-09T11:06:34;20.90;99.90
16594;DHT22;8410;52.532;13.336;2022-09-09T11:09:14;20.80;99.90
16594;DHT22;8410;52.532;13.336;2022-09-09T11:11:51;20.70;99.90
16594;DHT22;8410;52.532;13.336;2022-09-09T11:14:26;20.70;99.90
16594;DHT22;8410;52.532;13.336;2022-09-09T11:17:08;20.70;99.90
16594;DHT22;8410;52.532;13.336;2022-09-09T11:19:40;20.90;99.90
16594;DHT22;8410;52.532;13.336;2022-09-09T11:22:18;20.90;99.90
16594;DHT22;8410;52.532;13.336;2022-09-09T11:24:56;20.80;99.90
16594;DHT22;8410;52.532;13.336;2022-09-09T11:27:35;20.70;99.90
16594;DHT22;8410;52.532;13.336;2022-09-09T11:30:19;20.80;99.90
16594;DHT22;8410;52.532;13.336;2022-09-09T11:33:36;20.90;99.90
16594;DHT22;8410;52.532;13.336;2022-09-09T11:36:48;21.00;99.90
16594;DHT22;8410;52.532;13.336;2022-09-09T11:42:31;21.40;99.90
16594;DHT22;8410;52.532;13.336;2022-09-09T11:45:09;21.50;99.90
16594;DHT22;8410;52.532;13.336;2022-09-09T11:47:39;21.50;99.90
16594;DHT22;8410;52.532;13.336;2022-09-09T11:50:09;21.60;99.90
16594;DHT22;8410;52.532;13.336;2022-09-09T11:53:15;21.70;99.90
16594;DHT22;8410;52.532;13.336;2022-09-09T11:56:10;21.70;99.90
16594;DHT22;8410;52.532;13.336;2022-09-09T11:58:44;21.60;99.90
16594;DHT22;8410;52.532;13.336;2022-09-09T12:01:37;21.40;99.90
16594;DHT22;8410;52.532;13.336;2022-09-09T12:07:25;21.80;99.90
16594;DHT22;8410;52.532;13.336;2022-09-09T12:10:03;21.80;99.90
16594;DHT22;8410;52.532;13.336;2022-09-09T12:12:47;21.80;99.90
16594;DHT22;8410;52.532;13.336;2022-09-09T12:15:25;21.90;99.90
16594;DHT22;8410;52.532;13.336;2022-09-09T12:17:57;22.00;99.90
16594;DHT22;8410;52.532;13.336;2022-09-09T12:20:34;21.80;99.90
16594;DHT22;8410;52.532;13.336;2022-09-09T12:23:19;21.90;99.90
16594;DHT22;8410;52.532;13.336;2022-09-09T12:26:29;21.90;99.90
16594;DHT22;8410;52.532;13.336;2022-09-09T12:29:09;21.90;99.90
16594;DHT22;8410;52.532;13.336;2022-09-09T12:31:50;21.90;99.90
16594;DHT22;8410;52.532;13.336;2022-09-09T12:34:32;22.00;99.90
16594;DHT22;8410;52.532;13.336;2022-09-09T12:37:13;21.80;99.90
16594;DHT22;8410;52.532;13.336;2022-09-09T12:39:49;21.80;99.90
16594;DHT22;8410;52.532;13.336;2022-09-09T12:42:22;21.80;99.90
16594;DHT22;8410;52.532;13.336;2022-09-09T12:44:55;21.70;99.90
16594;DHT22;8410;52.532;13.336;2022-09-09T12:47:37;21.80;99.90
16594;DHT22;8410;52.532;13.336;2022-09-09T12:50:17;21.70;99.90
16594;DHT22;8410;52.532;13.336;2022-09-09T12:52:48;21.70;99.90
16594;DHT22;8410;52.532;13.336;2022-09-09T12:55:20;21.70;99.90
16594;DHT22;8410;52.532;13.336;2022-09-09T12:57:52;21.60;99.90
16594;DHT22;8410;52.532;13.336;2022-09-09T13:00:22;21.70;99.90
16594;DHT22;8410;52.532;13.336;2022-09-09T13:02:55;21.60;99.90
16594;DHT22;8410;52.532;13.336;2022-09-09T13:05:27;21.80;99.90
16594;DHT22;8410;52.532;13.336;2022-09-09T13:08:02;21.70;99.90
16594;DHT22;8410;52.532;13.336;2022-09-09T13:10:34;21.60;99.90
16594;DHT22;8410;52.532;13.336;2022-09-09T13:13:21;21.60;99.90
16594;DHT22;8410;52.532;13.336;2022-09-09T13:15:53;21.60;99.90
16594;DHT22;8410;52.532;13.336;2022-09-09T13:18:27;21.50;99.90
16594;DHT22;8410;52.532;13.336;2022-09-09T13:20:57;21.50;99.90
16594;DHT22;8410;52.532;13.336;2022-09-09T13:23:29;21.40;99.90
16594;DHT22;8410;52.532;13.336;2022-09-09T13:26:00;21.40;99.90
16594;DHT22;8410;52.532;13.336;2022-09-09T13:28:31;21.40;99.90
16594;DHT22;8410;52.532;13.336;2022-09-09T13:31:01;21.50;99.90
16594;DHT22;8410;52.532;13.336;2022-09-09T13:33:34;21.40;99.90
16594;DHT22;8410;52.532;13.336;2022-09-09T13:36:06;21.40;99.90
16594;DHT22;8410;52.532;13.336;2022-09-09T13:38:37;21.30;99.90
16594;DHT22;8410;52.532;13.336;2022-09-09T13:41:07;21.30;99.90
16594;DHT22;8410;52.532;13.336;2022-09-09T13:43:43;21.40;99.90
16594;DHT22;8410;52.532;13.336;2022-09-09T13:46:26;21.30;99.90
16594;DHT22;8410;52.532;13.336;2022-09-09T13:49:02;21.40;99.90
16594;DHT22;8410;52.532;13.336;2022-09-09T13:51:47;21.50;99.90
16594;DHT22;8410;52.532;13.336;2022-09-09T13:54:18;21.60;99.90
16594;DHT22;8410;52.532;13.336;2022-09-09T13:56:49;21.80;99.90
16594;DHT22;8410;52.532;13.336;2022-09-09T13:59:19;21.80;99.90
16594;DHT22;8410;52.532;13.336;2022-09-09T14:01:48;21.70;99.90
16594;DHT22;8410;52.532;13.336;2022-09-09T14:04:19;21.80;99.90
16594;DHT22;8410;52.532;13.336;2022-09-09T14:06:48;21.80;99.90
16594;DHT22;8410;52.532;13.336;2022-09-09T14:09:19;21.80;99.90
16594;DHT22;8410;52.532;13.336;2022-09-09T14:11:46;21.80;99.90
16594;DHT22;8410;52.532;13.336;2022-09-09T14:14:14;21.80;99.90
16594;DHT22;8410;52.532;13.336;2022-09-09T14:16:42;21.80;99.90
16594;DHT22;8410;52.532;13.336;2022-09-09T14:19:10;21.80;99.90
16594;DHT22;8410;52.532;13.336;2022-09-09T14:21:40;21.80;99.90
16594;DHT22;8410;52.532;13.336;2022-09-09T14:24:07;21.80;99.90
16594;DHT22;8410;52.532;13.336;2022-09-09T14:26:35;21.80;99.90
16594;DHT22;8410;52.532;13.336;2022-09-09T14:29:03;21.70;99.90
16594;DHT22;8410;52.532;13.336;2022-09-09T14:31:31;21.80;99.90
16594;DHT22;8410;52.532;13.336;2022-09-09T14:33:59;21.70;99.90
16594;DHT22;8410;52.532;13.336;2022-09-09T14:36:27;21.70;99.90
16594;DHT22;8410;52.532;13.336;2022-09-09T14:38:56;21.70;99.90
16594;DHT22;8410;52.532;13.336;2022-09-09T14:41:24;21.70;99.90
16594;DHT22;8410;52.532;13.336;2022-09-09T14:43:52;21.80;99.80
16594;DHT22;8410;52.532;13.336;2022-09-09T14:46:20;21.80;99.90
16594;DHT22;8410;52.532;13.336;2022-09-09T14:48:48;21.90;99.50
16594;DHT22;8410;52.532;13.336;2022-09-09T14:51:18;21.80;99.90
16594;DHT22;8410;52.532;13.336;2022-09-09T14:53:51;21.80;99.90
16594;DHT22;8410;52.532;13.336;2022-09-09T14:56:23;21.70;99.90
16594;DHT22;8410;52.532;13.336;2022-09-09T14:58:53;21.60;99.90
16594;DHT22;8410;52.532;13.336;2022-09-09T15:01:23;21.60;99.90
16594;DHT22;8410;52.532;13.336;2022-09-09T15:03:55;21.60;99.90
16594;DHT22;8410;52.532;13.336;2022-09-09T15:06:26;21.50;99.90
16594;DHT22;8410;52.532;13.336;2022-09-09T15:08:56;21.50;99.90
16594;DHT22;8410;52.532;13.336;2022-09-09T15:11:28;21.50;99.90
16594;DHT22;8410;52.532;13.336;2022-09-09T15:14:04;21.50;99.90
16594;DHT22;8410;52.532;13.336;2022-09-09T15:16:33;21.50;99.90
16594;DHT22;8410;52.532;13.336;2022-09-09T15:19:02;21.60;99.90
16594;DHT22;8410;52.532;13.336;2022-09-09T15:21:31;21.60;99.90
16594;DHT22;8410;52.532;13.336;2022-09-09T15:24:01;21.70;99.90
16594;DHT22;8410;52.532;13.336;2022-09-09T15:26:31;21.70;99.90
16594;DHT22;8410;52.532;13.336;2022-09-09T15:28:59;21.70;99.90
16594;DHT22;8410;52.532;13.336;2022-09-09T15:31:28;21.60;99.90
16594;DHT22;8410;52.532;13.336;2022-09-09T15:34:00;21.50;99.90
16594;DHT22;8410;52.532;13.336;2022-09-09T15:36:30;21.50;99.90
16594;DHT22;8410;52.532;13.336;2022-09-09T15:39:00;21.40;99.90
16594;DHT22;8410;52.532;13.336;2022-09-09T15:41:31;21.30;99.90
16594;DHT22;8410;52.532;13.336;2022-09-09T15:43:59;21.20;99.90
16594;DHT22;8410;52.532;13.336;2022-09-09T15:46:30;21.20;99.90
16594;DHT22;8410;52.532;13.336;2022-09-09T15:49:04;21.20;99.90
16594;DHT22;8410;52.532;13.336;2022-09-09T15:51:36;21.10;99.90
16594;DHT22;8410;52.532;13.336;2022-09-09T15:54:10;21.00;99.90
16594;DHT22;8410;52.532;13.336;2022-09-09T15:56:41;21.00;99.90
16594;DHT22;8410;52.532;13.336;2022-09-09T15:59:09;20.90;99.90
16594;DHT22;8410;52.532;13.336;2022-09-09T16:01:38;20.90;99.90
16594;DHT22;8410;52.532;13.336;2022-09-09T16:04:07;20.80;99.90
16594;DHT22;8410;52.532;13.336;2022-09-09T16:06:36;20.80;99.90
16594;DHT22;8410;52.532;13.336;2022-09-09T16:09:06;20.80;99.90
16594;DHT22;8410;52.532;13.336;2022-09-09T16:11:36;20.80;99.90
16594;DHT22;8410;52.532;13.336;2022-09-09T16:14:07;20.80;99.90
16594;DHT22;8410;52.532;13.336;2022-09-09T16:16:35;20.70;99.90
16594;DHT22;8410;52.532;13.336;2022-09-09T16:19:05;20.70;99.90